sensor_id;sensor_type;location;lat;lon;timestamp;pressure;altitude;pressure_sealevel;temperature;humidity
83896;BME280;74045;42.812;74.638;2023-11-19T00:01:40;91559.91;;;7.87;84.96
83896;BME280;74045;42.812;74.638;2023-11-19T00:04:06;91582.81;;;7.90;85.54
83896;BME280;74045;42.812;74.638;2023-11-19T00:06:33;91576.00;;;7.75;86.15
83896;BME280;74045;42.812;74.638;2023-11-19T00:08:59;91487.91;;;7.04;86.15
83896;BME280;74045;42.812;74.638;2023-11-19T00:11:25;91560.13;;;7.46;86.46
83896;BME280;74045;42.812;74.638;2023-11-19T00:13:51;91581.19;;;7.53;86.31
83896;BME280;74045;42.812;74.638;2023-11-19T00:16:16;91585.31;;;7.51;85.97
83896;BME280;74045;42.812;74.638;2023-11-19T00:18:43;91574.38;;;7.34;86.27
83896;BME280;74045;42.812;74.638;2023-11-19T00:21:08;91577.00;;;7.34;87.04
83896;BME280;74045;42.812;74.638;2023-11-19T00:23:35;91585.59;;;7.28;86.55
83896;BME280;74045;42.812;74.638;2023-11-19T00:26:01;91587.06;;;7.22;87.55
83896;BME280;74045;42.812;74.638;2023-11-19T00:28:27;91566.03;;;7.14;87.21
83896;BME280;74045;42.812;74.638;2023-11-19T00:30:54;91589.34;;;7.23;87.36
83896;BME280;74045;42.812;74.638;2023-11-19T00:33:19;91599.09;;;7.26;87.34
83896;BME280;74045;42.812;74.638;2023-11-19T00:35:45;91588.94;;;7.21;87.54
83896;BME280;74045;42.812;74.638;2023-11-19T00:38:11;91575.75;;;7.14;87.25
83896;BME280;74045;42.812;74.638;2023-11-19T00:40:37;91587.41;;;7.16;87.03
83896;BME280;74045;42.812;74.638;2023-11-19T00:43:02;91574.97;;;7.06;87.22
83896;BME280;74045;42.812;74.638;2023-11-19T00:45:28;91595.72;;;7.26;87.45
83896;BME280;74045;42.812;74.638;2023-11-19T00:47:54;91590.84;;;7.28;87.34
83896;BME280;74045;42.812;74.638;2023-11-19T00:50:21;91588.59;;;7.26;87.14
83896;BME280;74045;42.812;74.638;2023-11-19T00:52:48;91607.41;;;7.35;87.02
83896;BME280;74045;42.812;74.638;2023-11-19T00:55:13;91555.53;;;7.22;86.94
83896;BME280;74045;42.812;74.638;2023-11-19T00:57:39;91581.13;;;7.39;86.81
83896;BME280;74045;42.812;74.638;2023-11-19T01:00:06;91598.78;;;7.42;86.36
83896;BME280;74045;42.812;74.638;2023-11-19T01:02:44;91572.06;;;7.26;86.09
83896;BME280;74045;42.812;74.638;2023-11-19T01:05:10;91587.84;;;7.29;86.49
83896;BME280;74045;42.812;74.638;2023-11-19T01:07:39;91600.31;;;7.39;86.72
83896;BME280;74045;42.812;74.638;2023-11-19T01:10:05;91598.38;;;7.36;87.23
83896;BME280;74045;42.812;74.638;2023-11-19T01:12:32;91604.44;;;7.44;86.93
83896;BME280;74045;42.812;74.638;2023-11-19T01:14:58;91602.19;;;7.46;86.39
83896;BME280;74045;42.812;74.638;2023-11-19T01:17:24;91610.47;;;7.48;86.32
83896;BME280;74045;42.812;74.638;2023-11-19T01:19:49;91601.06;;;7.40;85.88
83896;BME280;74045;42.812;74.638;2023-11-19T01:22:15;91603.69;;;7.40;86.01
83896;BME280;74045;42.812;74.638;2023-11-19T01:24:41;91607.06;;;7.48;86.18
83896;BME280;74045;42.812;74.638;2023-11-19T01:27:07;91596.19;;;7.49;86.13
83896;BME280;74045;42.812;74.638;2023-11-19T01:29:55;91601.47;;;7.53;85.42
83896;BME280;74045;42.812;74.638;2023-11-19T01:32:21;91588.66;;;7.44;85.50
83896;BME280;74045;42.812;74.638;2023-11-19T01:34:46;91596.19;;;7.46;85.33
83896;BME280;74045;42.812;74.638;2023-11-19T01:37:12;91566.81;;;7.26;85.11
83896;BME280;74045;42.812;74.638;2023-11-19T01:39:39;91602.91;;;7.36;85.89
83896;BME280;74045;42.812;74.638;2023-11-19T01:42:05;91612.66;;;7.35;86.05
83896;BME280;74045;42.812;74.638;2023-11-19T01:44:31;91615.28;;;7.35;85.68
83896;BME280;74045;42.812;74.638;2023-11-19T01:46:57;91517.00;;;6.70;85.25
83896;BME280;74045;42.812;74.638;2023-11-19T01:49:23;91620.19;;;7.37;85.73
83896;BME280;74045;42.812;74.638;2023-11-19T01:51:49;91623.91;;;7.32;86.17
83896;BME280;74045;42.812;74.638;2023-11-19T01:54:15;91617.50;;;7.30;85.70
83896;BME280;74045;42.812;74.638;2023-11-19T01:56:42;91602.81;;;7.22;85.90
83896;BME280;74045;42.812;74.638;2023-11-19T01:59:09;91613.38;;;7.29;85.78
83896;BME280;74045;42.812;74.638;2023-11-19T02:01:35;91534.66;;;6.73;85.99
83896;BME280;74045;42.812;74.638;2023-11-19T02:04:08;91609.22;;;7.28;86.28
83896;BME280;74045;42.812;74.638;2023-11-19T02:06:37;91617.53;;;7.33;85.94
83896;BME280;74045;42.812;74.638;2023-11-19T02:09:06;91637.44;;;7.38;86.88
83896;BME280;74045;42.812;74.638;2023-11-19T02:11:34;91629.22;;;7.39;86.04
83896;BME280;74045;42.812;74.638;2023-11-19T02:14:00;91631.47;;;7.45;86.18
83896;BME280;74045;42.812;74.638;2023-11-19T02:16:26;91559.16;;;6.99;86.24
83896;BME280;74045;42.812;74.638;2023-11-19T02:18:53;91637.13;;;7.50;86.55
83896;BME280;74045;42.812;74.638;2023-11-19T02:21:19;91642.78;;;7.56;86.24
83896;BME280;74045;42.812;74.638;2023-11-19T02:23:45;91646.59;;;7.62;86.17
83896;BME280;74045;42.812;74.638;2023-11-19T02:26:40;91639.81;;;7.61;85.42
83896;BME280;74045;42.812;74.638;2023-11-19T02:29:09;91634.09;;;7.45;85.39
83896;BME280;74045;42.812;74.638;2023-11-19T02:31:35;91638.13;;;7.24;86.03
83896;BME280;74045;42.812;74.638;2023-11-19T02:34:01;91643.66;;;7.08;86.97
83896;BME280;74045;42.812;74.638;2023-11-19T02:36:28;91614.63;;;6.87;87.26
83896;BME280;74045;42.812;74.638;2023-11-19T02:38:53;91629.66;;;6.90;88.06
83896;BME280;74045;42.812;74.638;2023-11-19T02:41:20;91653.03;;;7.06;87.63
83896;BME280;74045;42.812;74.638;2023-11-19T02:43:46;91569.72;;;6.47;87.66
83896;BME280;74045;42.812;74.638;2023-11-19T02:46:14;91654.53;;;7.03;87.58
83896;BME280;74045;42.812;74.638;2023-11-19T02:48:39;91659.81;;;7.10;87.14
83896;BME280;74045;42.812;74.638;2023-11-19T02:51:06;91651.50;;;7.01;87.23
83896;BME280;74045;42.812;74.638;2023-11-19T02:53:35;91669.16;;;7.08;87.42
83896;BME280;74045;42.812;74.638;2023-11-19T02:56:03;91673.31;;;7.09;88.04
83896;BME280;74045;42.812;74.638;2023-11-19T02:58:43;91678.59;;;7.12;88.10
83896;BME280;74045;42.812;74.638;2023-11-19T03:01:10;91677.13;;;7.18;87.77
83896;BME280;74045;42.812;74.638;2023-11-19T03:03:44;91679.81;;;7.26;87.77
83896;BME280;74045;42.812;74.638;2023-11-19T03:06:14;91678.75;;;7.34;87.69
83896;BME280;74045;42.812;74.638;2023-11-19T03:08:40;91617.28;;;6.94;87.43
83896;BME280;74045;42.812;74.638;2023-11-19T03:11:06;91679.84;;;7.36;87.25
83896;BME280;74045;42.812;74.638;2023-11-19T03:13:31;91677.22;;;7.36;86.84
83896;BME280;74045;42.812;74.638;2023-11-19T03:15:57;91672.75;;;7.37;87.03
83896;BME280;74045;42.812;74.638;2023-11-19T03:18:23;91661.44;;;7.29;87.22
83896;BME280;74045;42.812;74.638;2023-11-19T03:20:48;91684.41;;;7.43;87.45
83896;BME280;74045;42.812;74.638;2023-11-19T03:23:15;91670.47;;;7.35;86.92
83896;BME280;74045;42.812;74.638;2023-11-19T03:25:41;91687.84;;;7.51;86.84
83896;BME280;74045;42.812;74.638;2023-11-19T03:28:06;91691.22;;;7.51;86.73
83896;BME280;74045;42.812;74.638;2023-11-19T03:30:32;91693.06;;;7.47;86.87
83896;BME280;74045;42.812;74.638;2023-11-19T03:32:58;91697.16;;;7.41;87.13
83896;BME280;74045;42.812;74.638;2023-11-19T03:35:25;91693.00;;;7.36;86.47
83896;BME280;74045;42.812;74.638;2023-11-19T03:37:51;91678.69;;;7.27;86.18
83896;BME280;74045;42.812;74.638;2023-11-19T03:40:17;91698.63;;;7.35;86.19
83896;BME280;74045;42.812;74.638;2023-11-19T03:42:45;91691.81;;;7.23;85.73
83896;BME280;74045;42.812;74.638;2023-11-19T03:45:11;91705.31;;;7.25;86.04
83896;BME280;74045;42.812;74.638;2023-11-19T03:47:37;91694.44;;;7.23;86.36
83896;BME280;74045;42.812;74.638;2023-11-19T03:50:04;91694.81;;;7.25;86.19
83896;BME280;74045;42.812;74.638;2023-11-19T03:52:30;91688.44;;;7.23;86.40
83896;BME280;74045;42.812;74.638;2023-11-19T03:54:56;91702.34;;;7.27;86.13
83896;BME280;74045;42.812;74.638;2023-11-19T03:57:23;91709.88;;;7.28;86.15
83896;BME280;74045;42.812;74.638;2023-11-19T03:59:49;91691.75;;;7.16;86.30
83896;BME280;74045;42.812;74.638;2023-11-19T04:02:16;91711.38;;;7.29;85.88
83896;BME280;74045;42.812;74.638;2023-11-19T04:04:42;91705.34;;;7.29;85.51
83896;BME280;74045;42.812;74.638;2023-11-19T04:07:08;91709.81;;;7.25;85.80
83896;BME280;74045;42.812;74.638;2023-11-19T04:09:34;91694.38;;;7.16;85.72
83896;BME280;74045;42.812;74.638;2023-11-19T04:12:03;91708.66;;;7.22;85.91
83896;BME280;74045;42.812;74.638;2023-11-19T04:14:29;91709.44;;;7.23;85.89
83896;BME280;74045;42.812;74.638;2023-11-19T04:16:54;91692.94;;;7.26;85.72
83896;BME280;74045;42.812;74.638;2023-11-19T04:19:20;91691.44;;;7.25;85.88
83896;BME280;74045;42.812;74.638;2023-11-19T04:21:47;91678.25;;;7.17;86.05
83896;BME280;74045;42.812;74.638;2023-11-19T04:24:13;91694.88;;;7.36;85.90
83896;BME280;74045;42.812;74.638;2023-11-19T04:26:43;91702.41;;;7.37;85.87
83896;BME280;74045;42.812;74.638;2023-11-19T04:29:13;91701.66;;;7.37;85.34
83896;BME280;74045;42.812;74.638;2023-11-19T04:31:45;91701.25;;;7.35;85.07
83896;BME280;74045;42.812;74.638;2023-11-19T04:34:11;91692.97;;;7.33;84.90
83896;BME280;74045;42.812;74.638;2023-11-19T04:36:38;91681.28;;;7.23;84.90
83896;BME280;74045;42.812;74.638;2023-11-19T04:39:05;91695.19;;;7.27;84.98
83896;BME280;74045;42.812;74.638;2023-11-19T04:44:16;91687.69;;;7.26;84.58
83896;BME280;74045;42.812;74.638;2023-11-19T04:46:42;91696.00;;;7.31;84.61
83896;BME280;74045;42.812;74.638;2023-11-19T04:49:12;91687.28;;;7.20;85.06
83896;BME280;74045;42.812;74.638;2023-11-19T04:51:41;91697.16;;;7.37;85.18
83896;BME280;74045;42.812;74.638;2023-11-19T04:54:08;91696.06;;;7.46;84.66
83896;BME280;74045;42.812;74.638;2023-11-19T04:56:37;91693.47;;;7.49;83.68
83896;BME280;74045;42.812;74.638;2023-11-19T04:59:03;91696.84;;;7.53;83.66
83896;BME280;74045;42.812;74.638;2023-11-19T05:01:31;91691.59;;;7.53;84.28
83896;BME280;74045;42.812;74.638;2023-11-19T05:03:57;91703.31;;;7.67;83.65
83896;BME280;74045;42.812;74.638;2023-11-19T05:06:29;91683.03;;;7.63;84.07
83896;BME280;74045;42.812;74.638;2023-11-19T05:08:56;91688.69;;;7.73;83.62
83896;BME280;74045;42.812;74.638;2023-11-19T05:11:22;91687.19;;;7.72;83.47
83896;BME280;74045;42.812;74.638;2023-11-19T05:13:48;91612.53;;;7.10;83.87
83896;BME280;74045;42.812;74.638;2023-11-19T05:16:14;91706.72;;;7.71;83.82
83896;BME280;74045;42.812;74.638;2023-11-19T05:18:42;91718.41;;;7.77;83.37
83896;BME280;74045;42.812;74.638;2023-11-19T05:21:08;91723.28;;;7.78;83.21
83896;BME280;74045;42.812;74.638;2023-11-19T05:23:33;91723.28;;;7.78;83.38
83896;BME280;74045;42.812;74.638;2023-11-19T05:26:02;91697.69;;;7.65;83.46
83896;BME280;74045;42.812;74.638;2023-11-19T05:28:28;91724.41;;;7.81;84.21
83896;BME280;74045;42.812;74.638;2023-11-19T05:30:54;91724.81;;;7.83;84.55
83896;BME280;74045;42.812;74.638;2023-11-19T05:33:21;91617.44;;;7.15;84.21
83896;BME280;74045;42.812;74.638;2023-11-19T05:35:47;91727.84;;;7.85;84.40
83896;BME280;74045;42.812;74.638;2023-11-19T05:38:13;91712.75;;;7.78;84.06
83896;BME280;74045;42.812;74.638;2023-11-19T05:40:40;91707.50;;;7.75;84.26
83896;BME280;74045;42.812;74.638;2023-11-19T05:43:06;91708.22;;;7.65;84.57
83896;BME280;74045;42.812;74.638;2023-11-19T05:45:32;91705.13;;;7.55;84.46
83896;BME280;74045;42.812;74.638;2023-11-19T05:47:58;91695.31;;;7.45;84.97
83896;BME280;74045;42.812;74.638;2023-11-19T05:50:24;91711.84;;;7.46;85.48
83896;BME280;74045;42.812;74.638;2023-11-19T05:52:50;91630.81;;;6.96;84.94
83896;BME280;74045;42.812;74.638;2023-11-19T05:55:18;91707.34;;;7.50;85.38
83896;BME280;74045;42.812;74.638;2023-11-19T05:57:44;91664.47;;;7.35;84.86
83896;BME280;74045;42.812;74.638;2023-11-19T06:00:10;91592.91;;;6.90;85.11
83896;BME280;74045;42.812;74.638;2023-11-19T06:02:38;91669.13;;;7.59;84.95
83896;BME280;74045;42.812;74.638;2023-11-19T06:05:05;91663.13;;;7.62;85.08
83896;BME280;74045;42.812;74.638;2023-11-19T06:07:34;91644.28;;;7.53;85.22
83896;BME280;74045;42.812;74.638;2023-11-19T06:10:02;91667.63;;;7.66;84.91
83896;BME280;74045;42.812;74.638;2023-11-19T06:12:30;91672.16;;;7.72;84.60
83896;BME280;74045;42.812;74.638;2023-11-19T06:14:57;91665.41;;;7.71;84.65
83896;BME280;74045;42.812;74.638;2023-11-19T06:17:23;91595.00;;;7.29;84.71
83896;BME280;74045;42.812;74.638;2023-11-19T06:19:48;91668.81;;;7.79;84.15
83896;BME280;74045;42.812;74.638;2023-11-19T06:22:14;91665.06;;;7.80;84.04
83896;BME280;74045;42.812;74.638;2023-11-19T06:24:40;91661.69;;;7.83;84.46
83896;BME280;74045;42.812;74.638;2023-11-19T06:27:05;91633.09;;;7.74;84.52
83896;BME280;74045;42.812;74.638;2023-11-19T06:29:31;91619.56;;;7.65;84.47
83896;BME280;74045;42.812;74.638;2023-11-19T06:31:57;91652.31;;;7.89;83.91
83896;BME280;74045;42.812;74.638;2023-11-19T06:34:22;91657.56;;;7.89;84.56
83896;BME280;74045;42.812;74.638;2023-11-19T06:36:48;91647.06;;;7.89;83.97
83896;BME280;74045;42.812;74.638;2023-11-19T06:39:14;91631.22;;;7.75;84.27
83896;BME280;74045;42.812;74.638;2023-11-19T06:41:45;91608.25;;;7.61;84.83
83896;BME280;74045;42.812;74.638;2023-11-19T06:44:11;91639.91;;;7.79;85.38
83896;BME280;74045;42.812;74.638;2023-11-19T06:46:37;91635.78;;;7.81;85.16
83896;BME280;74045;42.812;74.638;2023-11-19T06:49:02;91476.91;;;6.77;84.67
83896;BME280;74045;42.812;74.638;2023-11-19T06:51:28;91622.59;;;7.78;84.23
83896;BME280;74045;42.812;74.638;2023-11-19T06:53:55;91605.66;;;7.72;84.71
83896;BME280;74045;42.812;74.638;2023-11-19T06:56:22;91624.13;;;7.86;84.67
83896;BME280;74045;42.812;74.638;2023-11-19T06:58:48;91630.13;;;7.83;84.55
83896;BME280;74045;42.812;74.638;2023-11-19T07:01:15;91626.00;;;7.89;84.72
83896;BME280;74045;42.812;74.638;2023-11-19T07:03:41;91618.50;;;7.91;84.72
83896;BME280;74045;42.812;74.638;2023-11-19T07:06:07;91579.72;;;7.59;84.44
83896;BME280;74045;42.812;74.638;2023-11-19T07:08:34;91613.63;;;7.93;84.43
83896;BME280;74045;42.812;74.638;2023-11-19T07:11:00;91623.41;;;7.93;84.68
83896;BME280;74045;42.812;74.638;2023-11-19T07:13:26;91614.00;;;7.88;85.21
83896;BME280;74045;42.812;74.638;2023-11-19T07:15:55;91630.56;;;7.99;84.98
83896;BME280;74045;42.812;74.638;2023-11-19T07:18:21;91603.88;;;8.01;85.20
83896;BME280;74045;42.812;74.638;2023-11-19T07:20:48;91623.09;;;8.16;84.57
83896;BME280;74045;42.812;74.638;2023-11-19T07:23:14;91611.06;;;8.18;84.75
83896;BME280;74045;42.812;74.638;2023-11-19T07:25:43;91550.09;;;7.84;84.29
83896;BME280;74045;42.812;74.638;2023-11-19T07:28:12;91604.28;;;8.32;83.92
83896;BME280;74045;42.812;74.638;2023-11-19T07:30:38;91544.47;;;7.89;83.64
83896;BME280;74045;42.812;74.638;2023-11-19T07:33:04;91626.50;;;8.34;83.59
83896;BME280;74045;42.812;74.638;2023-11-19T07:35:31;91610.31;;;8.25;83.95
83896;BME280;74045;42.812;74.638;2023-11-19T07:37:57;91533.19;;;7.78;83.24
83896;BME280;74045;42.812;74.638;2023-11-19T07:40:23;91594.91;;;8.30;83.09
83896;BME280;74045;42.812;74.638;2023-11-19T07:42:49;91610.75;;;8.52;83.24
83896;BME280;74045;42.812;74.638;2023-11-19T07:45:16;91591.56;;;8.41;82.96
83896;BME280;74045;42.812;74.638;2023-11-19T07:47:42;91617.50;;;8.57;83.03
83896;BME280;74045;42.812;74.638;2023-11-19T07:50:10;91540.00;;;8.07;82.32
83896;BME280;74045;42.812;74.638;2023-11-19T07:52:37;91619.03;;;8.61;82.14
83896;BME280;74045;42.812;74.638;2023-11-19T07:55:03;91600.22;;;8.41;82.50
83896;BME280;74045;42.812;74.638;2023-11-19T07:57:30;91588.94;;;8.44;82.38
83896;BME280;74045;42.812;74.638;2023-11-19T07:59:59;91596.09;;;8.40;83.50
83896;BME280;74045;42.812;74.638;2023-11-19T08:02:26;91614.50;;;8.47;82.81
83896;BME280;74045;42.812;74.638;2023-11-19T08:04:52;91619.75;;;8.51;82.54
83896;BME280;74045;42.812;74.638;2023-11-19T08:07:21;91613.38;;;8.56;82.78
83896;BME280;74045;42.812;74.638;2023-11-19T08:09:47;91619.03;;;8.61;82.39
83896;BME280;74045;42.812;74.638;2023-11-19T08:12:13;91597.59;;;8.56;82.01
83896;BME280;74045;42.812;74.638;2023-11-19T08:14:43;91613.00;;;8.64;81.81
83896;BME280;74045;42.812;74.638;2023-11-19T08:17:09;91619.03;;;8.65;82.22
83896;BME280;74045;42.812;74.638;2023-11-19T08:19:35;91631.44;;;8.64;81.85
83896;BME280;74045;42.812;74.638;2023-11-19T08:22:01;91533.97;;;8.00;82.15
83896;BME280;74045;42.812;74.638;2023-11-19T08:24:27;91638.59;;;8.53;81.98
83896;BME280;74045;42.812;74.638;2023-11-19T08:26:53;91633.31;;;8.42;82.48
83896;BME280;74045;42.812;74.638;2023-11-19T08:29:19;91637.44;;;8.40;83.00
83896;BME280;74045;42.812;74.638;2023-11-19T08:31:45;91635.56;;;8.40;83.27
83896;BME280;74045;42.812;74.638;2023-11-19T08:34:11;91642.34;;;8.41;82.76
83896;BME280;74045;42.812;74.638;2023-11-19T08:36:37;91639.69;;;8.41;82.91
83896;BME280;74045;42.812;74.638;2023-11-19T08:39:03;91580.56;;;7.99;82.64
83896;BME280;74045;42.812;74.638;2023-11-19T08:41:29;91626.50;;;8.34;83.43
83896;BME280;74045;42.812;74.638;2023-11-19T08:43:54;91627.25;;;8.35;83.73
83896;BME280;74045;42.812;74.638;2023-11-19T08:46:20;91621.97;;;8.24;83.24
83896;BME280;74045;42.812;74.638;2023-11-19T08:48:46;91625.00;;;8.29;83.59
83896;BME280;74045;42.812;74.638;2023-11-19T08:51:12;91614.47;;;8.33;83.66
83896;BME280;74045;42.812;74.638;2023-11-19T08:53:38;91602.06;;;8.34;83.70
83896;BME280;74045;42.812;74.638;2023-11-19T08:56:04;91605.47;;;8.48;83.83
83896;BME280;74045;42.812;74.638;2023-11-19T08:58:30;91587.41;;;8.40;83.65
83896;BME280;74045;42.812;74.638;2023-11-19T09:00:56;91597.94;;;8.54;83.64
83896;BME280;74045;42.812;74.638;2023-11-19T09:03:23;91603.25;;;8.58;84.26
83896;BME280;74045;42.812;74.638;2023-11-19T09:05:49;91608.50;;;8.58;84.24
83896;BME280;74045;42.812;74.638;2023-11-19T09:08:15;91586.69;;;8.61;83.95
83896;BME280;74045;42.812;74.638;2023-11-19T09:10:40;91581.03;;;8.59;84.23
83896;BME280;74045;42.812;74.638;2023-11-19T09:13:06;91585.56;;;8.55;83.77
83896;BME280;74045;42.812;74.638;2023-11-19T09:15:32;91577.66;;;8.55;84.13
83896;BME280;74045;42.812;74.638;2023-11-19T09:17:58;91573.88;;;8.56;83.76
83896;BME280;74045;42.812;74.638;2023-11-19T09:20:24;91502.41;;;7.96;84.12
83896;BME280;74045;42.812;74.638;2023-11-19T09:22:50;91576.16;;;8.50;84.24
83896;BME280;74045;42.812;74.638;2023-11-19T09:25:16;91572.38;;;8.51;84.47
83896;BME280;74045;42.812;74.638;2023-11-19T09:27:43;91562.63;;;8.51;84.10
83896;BME280;74045;42.812;74.638;2023-11-19T09:30:09;91562.59;;;8.44;84.18
83896;BME280;74045;42.812;74.638;2023-11-19T09:32:35;91565.25;;;8.44;84.59
83896;BME280;74045;42.812;74.638;2023-11-19T09:35:01;91563.75;;;8.43;85.27
83896;BME280;74045;42.812;74.638;2023-11-19T09:37:28;91473.84;;;7.77;84.85
83896;BME280;74045;42.812;74.638;2023-11-19T09:39:54;91562.56;;;8.30;85.02
83896;BME280;74045;42.812;74.638;2023-11-19T09:42:19;91555.41;;;8.20;84.73
83896;BME280;74045;42.812;74.638;2023-11-19T09:44:47;91573.09;;;8.23;85.34
83896;BME280;74045;42.812;74.638;2023-11-19T09:47:14;91577.59;;;8.19;85.48
83896;BME280;74045;42.812;74.638;2023-11-19T09:49:39;91578.72;;;8.14;85.88
83896;BME280;74045;42.812;74.638;2023-11-19T09:52:05;91577.59;;;8.12;85.61
83896;BME280;74045;42.812;74.638;2023-11-19T09:54:31;91564.41;;;8.01;85.90
83896;BME280;74045;42.812;74.638;2023-11-19T09:56:58;91579.81;;;8.06;86.24
83896;BME280;74045;42.812;74.638;2023-11-19T09:59:29;91571.91;;;7.95;85.83
83896;BME280;74045;42.812;74.638;2023-11-19T10:01:56;91571.53;;;7.90;86.04
83896;BME280;74045;42.812;74.638;2023-11-19T10:04:22;91553.44;;;7.59;86.81
83896;BME280;74045;42.812;74.638;2023-11-19T10:06:52;91548.91;;;7.56;86.98
83896;BME280;74045;42.812;74.638;2023-11-19T10:09:18;91586.53;;;7.75;87.14
83896;BME280;74045;42.812;74.638;2023-11-19T10:11:44;91518.00;;;7.25;87.14
83896;BME280;74045;42.812;74.638;2023-11-19T10:14:10;91585.72;;;7.63;87.52
83896;BME280;74045;42.812;74.638;2023-11-19T10:16:36;91514.22;;;7.11;87.01
83896;BME280;74045;42.812;74.638;2023-11-19T10:19:01;91618.81;;;7.68;87.00
83896;BME280;74045;42.812;74.638;2023-11-19T10:21:27;91609.78;;;7.69;87.23
83896;BME280;74045;42.812;74.638;2023-11-19T10:23:55;91602.25;;;7.60;87.52
83896;BME280;74045;42.812;74.638;2023-11-19T10:26:26;91609.78;;;7.69;87.51
83896;BME280;74045;42.812;74.638;2023-11-19T10:28:52;91606.81;;;7.71;87.33
83896;BME280;74045;42.812;74.638;2023-11-19T10:31:20;91609.78;;;7.69;87.22
83896;BME280;74045;42.812;74.638;2023-11-19T10:33:52;91595.81;;;7.47;87.42
83896;BME280;74045;42.812;74.638;2023-11-19T10:36:18;91612.38;;;7.51;87.53
83896;BME280;74045;42.812;74.638;2023-11-19T10:38:54;91536.69;;;7.05;88.11
83896;BME280;74045;42.812;74.638;2023-11-19T10:41:30;91614.31;;;7.65;87.36
83896;BME280;74045;42.812;74.638;2023-11-19T10:43:57;91598.03;;;7.42;87.12
83896;BME280;74045;42.812;74.638;2023-11-19T10:46:22;91623.63;;;7.55;87.50
83896;BME280;74045;42.812;74.638;2023-11-19T10:48:49;91584.09;;;7.27;87.64
83896;BME280;74045;42.812;74.638;2023-11-19T10:51:19;91631.91;;;7.54;87.76
83896;BME280;74045;42.812;74.638;2023-11-19T10:53:49;91631.53;;;7.55;88.04
83896;BME280;74045;42.812;74.638;2023-11-19T10:56:17;91624.78;;;7.61;88.02
83896;BME280;74045;42.812;74.638;2023-11-19T10:58:46;91618.75;;;7.57;88.00
83896;BME280;74045;42.812;74.638;2023-11-19T11:01:19;91633.09;;;7.71;88.09
83896;BME280;74045;42.812;74.638;2023-11-19T11:03:46;91593.97;;;7.55;87.62
83896;BME280;74045;42.812;74.638;2023-11-19T11:06:13;91623.72;;;7.77;87.48
83896;BME280;74045;42.812;74.638;2023-11-19T11:08:39;91630.88;;;7.80;88.05
83896;BME280;74045;42.812;74.638;2023-11-19T11:11:06;91610.53;;;7.70;87.85
83896;BME280;74045;42.812;74.638;2023-11-19T11:13:33;91613.97;;;7.81;87.45
83896;BME280;74045;42.812;74.638;2023-11-19T11:15:59;91644.44;;;7.89;87.52
83896;BME280;74045;42.812;74.638;2023-11-19T11:18:26;91656.84;;;7.92;87.50
83896;BME280;74045;42.812;74.638;2023-11-19T11:20:57;91642.19;;;7.88;87.61
83896;BME280;74045;42.812;74.638;2023-11-19T11:26:50;91647.03;;;7.82;87.96
83896;BME280;74045;42.812;74.638;2023-11-19T11:39:34;91652.66;;;7.80;88.27
83896;BME280;74045;42.812;74.638;2023-11-19T11:42:36;91672.25;;;7.97;87.88
83896;BME280;74045;42.812;74.638;2023-11-19T11:45:11;91674.53;;;7.99;88.13
83896;BME280;74045;42.812;74.638;2023-11-19T11:50:13;91685.03;;;7.95;87.45
83896;BME280;74045;42.812;74.638;2023-11-19T11:58:21;91626.94;;;7.38;87.61
83896;BME280;74045;42.812;74.638;2023-11-19T12:00:48;91691.72;;;7.75;87.67
83896;BME280;74045;42.812;74.638;2023-11-19T12:03:14;91695.47;;;7.74;87.72
83896;BME280;74045;42.812;74.638;2023-11-19T12:05:44;91692.09;;;7.73;88.22
83896;BME280;74045;42.812;74.638;2023-11-19T12:08:12;91704.84;;;7.71;87.95
83896;BME280;74045;42.812;74.638;2023-11-19T12:10:50;91709.38;;;7.78;87.90
83896;BME280;74045;42.812;74.638;2023-11-19T12:13:18;91726.28;;;7.77;88.16
83896;BME280;74045;42.812;74.638;2023-11-19T12:18:29;91714.25;;;7.72;88.34
83896;BME280;74045;42.812;74.638;2023-11-19T12:20:56;91729.31;;;7.79;88.49
83896;BME280;74045;42.812;74.638;2023-11-19T12:23:26;91712.00;;;7.74;88.59
83896;BME280;74045;42.812;74.638;2023-11-19T12:25:52;91722.91;;;7.76;88.41
83896;BME280;74045;42.812;74.638;2023-11-19T12:28:18;91742.88;;;7.88;88.44
83896;BME280;74045;42.812;74.638;2023-11-19T12:30:44;91731.56;;;7.84;88.62
83896;BME280;74045;42.812;74.638;2023-11-19T12:33:12;91756.44;;;7.94;88.04
83896;BME280;74045;42.812;74.638;2023-11-19T12:35:45;91762.44;;;7.94;88.41
83896;BME280;74045;42.812;74.638;2023-11-19T12:38:25;91688.16;;;7.42;88.55
83896;BME280;74045;42.812;74.638;2023-11-19T12:41:08;91759.34;;;7.78;89.01
83896;BME280;74045;42.812;74.638;2023-11-19T12:43:37;91765.00;;;7.76;88.85
83896;BME280;74045;42.812;74.638;2023-11-19T12:46:19;91756.72;;;7.78;89.02
83896;BME280;74045;42.812;74.638;2023-11-19T12:48:48;91766.09;;;7.72;89.27
83896;BME280;74045;42.812;74.638;2023-11-19T12:51:15;91769.84;;;7.71;88.74
83896;BME280;74045;42.812;74.638;2023-11-19T12:53:50;91711.38;;;7.33;89.04
83896;BME280;74045;42.812;74.638;2023-11-19T12:56:22;91753.28;;;7.67;88.94
83896;BME280;74045;42.812;74.638;2023-11-19T12:58:49;91761.94;;;7.71;88.85
83896;BME280;74045;42.812;74.638;2023-11-19T13:01:27;91769.50;;;7.76;88.79
83896;BME280;74045;42.812;74.638;2023-11-19T13:04:17;91652.97;;;6.95;88.96
83896;BME280;74045;42.812;74.638;2023-11-19T13:06:46;91762.28;;;7.66;89.48
83896;BME280;74045;42.812;74.638;2023-11-19T13:09:28;91754.81;;;7.68;88.91
83896;BME280;74045;42.812;74.638;2023-11-19T13:11:55;91750.63;;;7.59;89.09
83896;BME280;74045;42.812;74.638;2023-11-19T13:14:36;91741.13;;;7.44;88.91
83896;BME280;74045;42.812;74.638;2023-11-19T13:17:02;91699.22;;;7.10;88.91
83896;BME280;74045;42.812;74.638;2023-11-19T13:19:28;91764.03;;;7.47;89.55
83896;BME280;74045;42.812;74.638;2023-11-19T13:21:54;91758.78;;;7.47;89.48
83896;BME280;74045;42.812;74.638;2023-11-19T13:24:20;91731.25;;;7.27;89.94
83896;BME280;74045;42.812;74.638;2023-11-19T13:26:45;91692.72;;;6.97;89.69
83896;BME280;74045;42.812;74.638;2023-11-19T13:29:11;91740.97;;;7.23;89.98